Terminal Aerodrome Forecast
Issued by NWS

Home | Current Version | Previous Version | Text Only | Print | Product List | Glossary On
Versions: 1 2 3 4 5 6 7 8 9 10 11 12 13 14 15 16 17 18
000
FTUS42 KRAH 180536
TAFRWI
TAF
KRWI 180536Z 1806/1906 00000KT P6SM SKC
     FM180900 VRB03KT 5SM BR SCT150
     FM181300 21010KT P6SM SCT150
     FM182100 21011G19KT P6SM BKN140
     FM182300 20009G17KT P6SM BKN140
     FM190000 19009KT P6SM SCT140 WS020/21040KT=

USA.gov is the U.S. government's official web portal to all federal, state and local government web resources and services.